Terminal Aerodrome Forecast
Issued by NWS Twin Cities, MN

Home | Current Version | Previous Version | Text Only | Print | Product List | Glossary On
Versions: 1 2 3 4 5 6 7 8 9 10 11 12 13 14
000
FTUS43 KMPX 161738
TAFSTC
TAF
KSTC 161738Z 1618/1718 VRB03KT 5SM BR BKN007 OVC250
     FM162300 03002KT 6SM BR OVC010
     FM170800 33003KT 1/2SM FG BKN004
     FM171600 30004KT 5SM BR SCT008=

USA.gov is the U.S. government's official web portal to all federal, state and local government web resources and services.